sensor_id;sensor_type;location;lat;lon;timestamp;P1;durP1;ratioP1;P2;durP2;ratioP2
55031;SDS011;40928;51.076;7.950;2023-04-24T00:02:17;0.35;;;0.30;;
55031;SDS011;40928;51.076;7.950;2023-04-24T00:04:43;0.28;;;0.20;;
55031;SDS011;40928;51.076;7.950;2023-04-24T00:07:14;0.80;;;0.40;;
55031;SDS011;40928;51.076;7.950;2023-04-24T00:09:42;0.25;;;0.20;;
55031;SDS011;40928;51.076;7.950;2023-04-24T00:12:09;3.15;;;0.40;;
55031;SDS011;40928;51.076;7.950;2023-04-24T00:14:34;0.35;;;0.28;;
55031;SDS011;40928;51.076;7.950;2023-04-24T00:17:00;2.42;;;0.57;;
55031;SDS011;40928;51.076;7.950;2023-04-24T00:19:27;0.50;;;0.40;;
55031;SDS011;40928;51.076;7.950;2023-04-24T00:21:54;0.52;;;0.30;;
55031;SDS011;40928;51.076;7.950;2023-04-24T00:24:20;0.93;;;0.47;;
55031;SDS011;40928;51.076;7.950;2023-04-24T00:26:46;0.30;;;0.30;;
55031;SDS011;40928;51.076;7.950;2023-04-24T00:29:12;0.73;;;0.32;;
55031;SDS011;40928;51.076;7.950;2023-04-24T00:31:37;0.88;;;0.52;;
55031;SDS011;40928;51.076;7.950;2023-04-24T00:34:03;2.60;;;0.40;;
55031;SDS011;40928;51.076;7.950;2023-04-24T00:36:29;0.60;;;0.35;;
55031;SDS011;40928;51.076;7.950;2023-04-24T00:38:56;2.42;;;0.50;;
55031;SDS011;40928;51.076;7.950;2023-04-24T00:41:22;0.88;;;0.25;;
55031;SDS011;40928;51.076;7.950;2023-04-24T00:43:49;1.45;;;0.40;;
55031;SDS011;40928;51.076;7.950;2023-04-24T00:46:15;0.30;;;0.30;;
55031;SDS011;40928;51.076;7.950;2023-04-24T00:48:41;0.30;;;0.28;;
55031;SDS011;40928;51.076;7.950;2023-04-24T00:51:08;1.05;;;0.43;;
55031;SDS011;40928;51.076;7.950;2023-04-24T00:53:33;0.68;;;0.32;;
55031;SDS011;40928;51.076;7.950;2023-04-24T00:55:59;0.30;;;0.20;;
55031;SDS011;40928;51.076;7.950;2023-04-24T00:58:25;0.30;;;0.30;;
55031;SDS011;40928;51.076;7.950;2023-04-24T01:00:51;0.35;;;0.30;;
55031;SDS011;40928;51.076;7.950;2023-04-24T01:03:20;1.55;;;0.20;;
55031;SDS011;40928;51.076;7.950;2023-04-24T01:05:51;0.20;;;0.20;;
55031;SDS011;40928;51.076;7.950;2023-04-24T01:08:17;0.52;;;0.32;;
55031;SDS011;40928;51.076;7.950;2023-04-24T01:10:44;0.75;;;0.30;;
55031;SDS011;40928;51.076;7.950;2023-04-24T01:13:11;0.45;;;0.28;;
55031;SDS011;40928;51.076;7.950;2023-04-24T01:15:36;1.35;;;0.40;;
55031;SDS011;40928;51.076;7.950;2023-04-24T01:18:02;0.22;;;0.20;;
55031;SDS011;40928;51.076;7.950;2023-04-24T01:20:28;2.97;;;0.30;;
55031;SDS011;40928;51.076;7.950;2023-04-24T01:22:55;0.93;;;0.50;;
55031;SDS011;40928;51.076;7.950;2023-04-24T01:25:22;0.90;;;0.50;;
55031;SDS011;40928;51.076;7.950;2023-04-24T01:27:48;1.65;;;0.30;;
55031;SDS011;40928;51.076;7.950;2023-04-24T01:30:13;0.38;;;0.35;;
55031;SDS011;40928;51.076;7.950;2023-04-24T01:32:40;0.55;;;0.30;;
55031;SDS011;40928;51.076;7.950;2023-04-24T01:35:09;0.52;;;0.25;;
55031;SDS011;40928;51.076;7.950;2023-04-24T01:37:35;0.50;;;0.30;;
55031;SDS011;40928;51.076;7.950;2023-04-24T01:40:03;0.68;;;0.40;;
55031;SDS011;40928;51.076;7.950;2023-04-24T01:42:30;3.00;;;0.40;;
55031;SDS011;40928;51.076;7.950;2023-04-24T01:44:55;1.63;;;0.30;;
55031;SDS011;40928;51.076;7.950;2023-04-24T01:47:22;0.98;;;0.40;;
55031;SDS011;40928;51.076;7.950;2023-04-24T01:49:49;1.55;;;0.30;;
55031;SDS011;40928;51.076;7.950;2023-04-24T01:52:16;0.38;;;0.30;;
55031;SDS011;40928;51.076;7.950;2023-04-24T01:54:43;3.90;;;0.38;;
55031;SDS011;40928;51.076;7.950;2023-04-24T01:57:08;0.30;;;0.30;;
55031;SDS011;40928;51.076;7.950;2023-04-24T01:59:34;3.17;;;0.40;;
55031;SDS011;40928;51.076;7.950;2023-04-24T02:02:01;0.35;;;0.20;;
55031;SDS011;40928;51.076;7.950;2023-04-24T02:04:29;0.38;;;0.20;;
55031;SDS011;40928;51.076;7.950;2023-04-24T02:06:56;0.90;;;0.60;;
55031;SDS011;40928;51.076;7.950;2023-04-24T02:09:23;1.30;;;0.30;;
55031;SDS011;40928;51.076;7.950;2023-04-24T02:11:49;0.60;;;0.20;;
55031;SDS011;40928;51.076;7.950;2023-04-24T02:14:16;0.43;;;0.40;;
55031;SDS011;40928;51.076;7.950;2023-04-24T02:16:42;0.25;;;0.25;;
55031;SDS011;40928;51.076;7.950;2023-04-24T02:19:09;0.60;;;0.20;;
55031;SDS011;40928;51.076;7.950;2023-04-24T02:21:34;1.20;;;0.30;;
55031;SDS011;40928;51.076;7.950;2023-04-24T02:24:00;1.02;;;0.38;;
55031;SDS011;40928;51.076;7.950;2023-04-24T02:26:26;0.30;;;0.30;;
55031;SDS011;40928;51.076;7.950;2023-04-24T02:28:52;2.00;;;0.40;;
55031;SDS011;40928;51.076;7.950;2023-04-24T02:31:19;0.35;;;0.30;;
55031;SDS011;40928;51.076;7.950;2023-04-24T02:33:46;0.30;;;0.30;;
55031;SDS011;40928;51.076;7.950;2023-04-24T02:36:12;0.65;;;0.40;;
55031;SDS011;40928;51.076;7.950;2023-04-24T02:38:38;0.68;;;0.30;;
55031;SDS011;40928;51.076;7.950;2023-04-24T02:41:04;0.40;;;0.30;;
55031;SDS011;40928;51.076;7.950;2023-04-24T02:43:31;1.17;;;0.22;;
55031;SDS011;40928;51.076;7.950;2023-04-24T02:45:58;0.73;;;0.60;;
55031;SDS011;40928;51.076;7.950;2023-04-24T02:48:24;0.38;;;0.32;;
55031;SDS011;40928;51.076;7.950;2023-04-24T02:50:50;1.27;;;0.30;;
55031;SDS011;40928;51.076;7.950;2023-04-24T02:53:16;0.95;;;0.45;;
55031;SDS011;40928;51.076;7.950;2023-04-24T02:55:42;1.65;;;0.30;;
55031;SDS011;40928;51.076;7.950;2023-04-24T02:58:07;0.35;;;0.25;;
55031;SDS011;40928;51.076;7.950;2023-04-24T03:00:33;0.10;;;0.10;;
55031;SDS011;40928;51.076;7.950;2023-04-24T03:02:59;2.30;;;0.47;;
55031;SDS011;40928;51.076;7.950;2023-04-24T03:05:24;4.28;;;0.70;;
55031;SDS011;40928;51.076;7.950;2023-04-24T03:07:50;4.32;;;0.77;;
55031;SDS011;40928;51.076;7.950;2023-04-24T03:10:17;3.38;;;1.40;;
55031;SDS011;40928;51.076;7.950;2023-04-24T03:12:43;1.98;;;1.02;;
55031;SDS011;40928;51.076;7.950;2023-04-24T03:15:09;5.35;;;1.20;;
55031;SDS011;40928;51.076;7.950;2023-04-24T03:17:36;3.00;;;1.02;;
55031;SDS011;40928;51.076;7.950;2023-04-24T03:20:02;3.35;;;1.17;;
55031;SDS011;40928;51.076;7.950;2023-04-24T03:22:30;1.52;;;1.08;;
55031;SDS011;40928;51.076;7.950;2023-04-24T03:24:58;3.35;;;1.35;;
55031;SDS011;40928;51.076;7.950;2023-04-24T03:27:24;1.95;;;1.38;;
55031;SDS011;40928;51.076;7.950;2023-04-24T03:30:01;4.63;;;1.40;;
55031;SDS011;40928;51.076;7.950;2023-04-24T03:32:50;2.38;;;1.48;;
55031;SDS011;40928;51.076;7.950;2023-04-24T03:35:21;4.80;;;1.88;;
55031;SDS011;40928;51.076;7.950;2023-04-24T03:37:47;2.72;;;1.35;;
55031;SDS011;40928;51.076;7.950;2023-04-24T03:40:45;2.47;;;1.50;;
55031;SDS011;40928;51.076;7.950;2023-04-24T03:43:31;2.60;;;1.70;;
55031;SDS011;40928;51.076;7.950;2023-04-24T03:45:59;2.25;;;1.77;;
55031;SDS011;40928;51.076;7.950;2023-04-24T03:48:25;3.90;;;1.73;;
55031;SDS011;40928;51.076;7.950;2023-04-24T03:50:50;3.63;;;1.88;;
55031;SDS011;40928;51.076;7.950;2023-04-24T03:53:16;5.93;;;2.45;;
55031;SDS011;40928;51.076;7.950;2023-04-24T03:55:43;5.25;;;2.08;;
55031;SDS011;40928;51.076;7.950;2023-04-24T03:58:09;2.28;;;1.58;;
55031;SDS011;40928;51.076;7.950;2023-04-24T04:00:35;4.60;;;2.85;;
55031;SDS011;40928;51.076;7.950;2023-04-24T04:03:31;3.78;;;2.08;;
55031;SDS011;40928;51.076;7.950;2023-04-24T04:05:57;7.20;;;2.10;;
55031;SDS011;40928;51.076;7.950;2023-04-24T04:08:23;5.45;;;2.63;;
55031;SDS011;40928;51.076;7.950;2023-04-24T04:10:48;5.00;;;2.25;;
55031;SDS011;40928;51.076;7.950;2023-04-24T04:13:14;7.20;;;2.45;;
55031;SDS011;40928;51.076;7.950;2023-04-24T04:15:40;4.03;;;2.20;;
55031;SDS011;40928;51.076;7.950;2023-04-24T04:18:06;5.05;;;3.03;;
55031;SDS011;40928;51.076;7.950;2023-04-24T04:20:32;4.07;;;3.00;;
55031;SDS011;40928;51.076;7.950;2023-04-24T04:22:58;5.00;;;3.28;;
55031;SDS011;40928;51.076;7.950;2023-04-24T04:25:35;6.63;;;4.05;;
55031;SDS011;40928;51.076;7.950;2023-04-24T04:28:01;12.30;;;5.07;;
55031;SDS011;40928;51.076;7.950;2023-04-24T04:30:27;7.45;;;4.93;;
55031;SDS011;40928;51.076;7.950;2023-04-24T04:33:00;7.13;;;4.30;;
55031;SDS011;40928;51.076;7.950;2023-04-24T04:35:26;6.95;;;4.38;;
55031;SDS011;40928;51.076;7.950;2023-04-24T04:37:52;7.82;;;4.85;;
55031;SDS011;40928;51.076;7.950;2023-04-24T04:40:33;9.43;;;4.63;;
55031;SDS011;40928;51.076;7.950;2023-04-24T04:43:02;6.88;;;3.90;;
55031;SDS011;40928;51.076;7.950;2023-04-24T04:45:33;7.45;;;3.90;;
55031;SDS011;40928;51.076;7.950;2023-04-24T04:48:25;8.63;;;4.43;;
55031;SDS011;40928;51.076;7.950;2023-04-24T04:50:51;6.03;;;3.75;;
55031;SDS011;40928;51.076;7.950;2023-04-24T04:53:18;6.50;;;3.92;;
55031;SDS011;40928;51.076;7.950;2023-04-24T04:55:44;7.32;;;4.60;;
55031;SDS011;40928;51.076;7.950;2023-04-24T04:58:13;6.88;;;4.10;;
55031;SDS011;40928;51.076;7.950;2023-04-24T05:00:38;7.25;;;4.53;;
55031;SDS011;40928;51.076;7.950;2023-04-24T05:03:15;6.63;;;4.13;;
55031;SDS011;40928;51.076;7.950;2023-04-24T05:05:41;7.32;;;4.25;;
55031;SDS011;40928;51.076;7.950;2023-04-24T05:08:10;6.97;;;4.18;;
55031;SDS011;40928;51.076;7.950;2023-04-24T05:10:36;9.30;;;4.07;;
55031;SDS011;40928;51.076;7.950;2023-04-24T05:13:03;8.88;;;4.68;;
55031;SDS011;40928;51.076;7.950;2023-04-24T05:15:30;5.72;;;3.97;;
55031;SDS011;40928;51.076;7.950;2023-04-24T05:17:56;8.73;;;4.70;;
55031;SDS011;40928;51.076;7.950;2023-04-24T05:20:23;5.85;;;3.80;;
55031;SDS011;40928;51.076;7.950;2023-04-24T05:22:48;8.68;;;4.13;;
55031;SDS011;40928;51.076;7.950;2023-04-24T05:25:15;7.35;;;4.47;;
55031;SDS011;40928;51.076;7.950;2023-04-24T05:27:46;7.25;;;4.80;;
55031;SDS011;40928;51.076;7.950;2023-04-24T05:30:14;6.97;;;5.00;;
55031;SDS011;40928;51.076;7.950;2023-04-24T05:32:41;7.93;;;4.55;;
55031;SDS011;40928;51.076;7.950;2023-04-24T05:35:06;8.00;;;4.32;;
55031;SDS011;40928;51.076;7.950;2023-04-24T05:37:32;7.95;;;4.70;;
55031;SDS011;40928;51.076;7.950;2023-04-24T05:39:58;6.80;;;4.25;;
55031;SDS011;40928;51.076;7.950;2023-04-24T05:42:24;8.00;;;4.32;;
55031;SDS011;40928;51.076;7.950;2023-04-24T05:44:50;7.80;;;4.28;;
55031;SDS011;40928;51.076;7.950;2023-04-24T05:47:15;8.15;;;4.22;;
55031;SDS011;40928;51.076;7.950;2023-04-24T05:49:41;6.50;;;4.35;;
55031;SDS011;40928;51.076;7.950;2023-04-24T05:52:07;9.05;;;4.13;;
55031;SDS011;40928;51.076;7.950;2023-04-24T05:54:35;7.78;;;3.85;;
55031;SDS011;40928;51.076;7.950;2023-04-24T05:57:01;7.13;;;4.60;;
55031;SDS011;40928;51.076;7.950;2023-04-24T05:59:44;5.68;;;4.32;;
55031;SDS011;40928;51.076;7.950;2023-04-24T06:02:09;5.32;;;4.10;;
55031;SDS011;40928;51.076;7.950;2023-04-24T06:04:36;6.53;;;3.92;;
55031;SDS011;40928;51.076;7.950;2023-04-24T06:07:02;6.22;;;3.97;;
55031;SDS011;40928;51.076;7.950;2023-04-24T06:09:28;5.60;;;3.63;;
55031;SDS011;40928;51.076;7.950;2023-04-24T06:11:53;8.43;;;3.90;;
55031;SDS011;40928;51.076;7.950;2023-04-24T06:14:23;10.38;;;4.45;;
55031;SDS011;40928;51.076;7.950;2023-04-24T06:17:11;4.78;;;3.80;;
55031;SDS011;40928;51.076;7.950;2023-04-24T06:19:39;7.68;;;4.68;;
55031;SDS011;40928;51.076;7.950;2023-04-24T06:22:06;6.07;;;3.90;;
55031;SDS011;40928;51.076;7.950;2023-04-24T06:24:31;4.95;;;3.72;;
55031;SDS011;40928;51.076;7.950;2023-04-24T06:26:57;7.18;;;4.25;;
55031;SDS011;40928;51.076;7.950;2023-04-24T06:29:24;4.55;;;3.42;;
55031;SDS011;40928;51.076;7.950;2023-04-24T06:31:49;6.25;;;4.03;;
55031;SDS011;40928;51.076;7.950;2023-04-24T06:34:15;6.20;;;3.67;;
55031;SDS011;40928;51.076;7.950;2023-04-24T06:36:40;5.32;;;3.80;;
55031;SDS011;40928;51.076;7.950;2023-04-24T06:39:06;5.30;;;3.42;;
55031;SDS011;40928;51.076;7.950;2023-04-24T06:41:32;6.40;;;3.58;;
55031;SDS011;40928;51.076;7.950;2023-04-24T06:43:57;7.80;;;3.65;;
55031;SDS011;40928;51.076;7.950;2023-04-24T06:46:23;4.40;;;3.20;;
55031;SDS011;40928;51.076;7.950;2023-04-24T06:48:52;5.15;;;3.47;;
55031;SDS011;40928;51.076;7.950;2023-04-24T06:51:21;5.30;;;3.63;;
55031;SDS011;40928;51.076;7.950;2023-04-24T06:53:53;5.10;;;3.42;;
55031;SDS011;40928;51.076;7.950;2023-04-24T06:56:19;6.18;;;3.28;;
55031;SDS011;40928;51.076;7.950;2023-04-24T06:58:45;6.25;;;3.53;;
55031;SDS011;40928;51.076;7.950;2023-04-24T07:01:11;6.38;;;4.13;;
55031;SDS011;40928;51.076;7.950;2023-04-24T07:03:37;7.03;;;4.10;;
55031;SDS011;40928;51.076;7.950;2023-04-24T07:06:04;7.45;;;4.13;;
55031;SDS011;40928;51.076;7.950;2023-04-24T07:08:30;6.72;;;4.05;;
55031;SDS011;40928;51.076;7.950;2023-04-24T07:10:56;14.57;;;3.42;;
55031;SDS011;40928;51.076;7.950;2023-04-24T07:13:22;5.55;;;3.90;;
55031;SDS011;40928;51.076;7.950;2023-04-24T07:15:48;8.23;;;3.97;;
55031;SDS011;40928;51.076;7.950;2023-04-24T07:18:16;8.02;;;4.43;;
55031;SDS011;40928;51.076;7.950;2023-04-24T07:20:42;9.05;;;4.45;;
55031;SDS011;40928;51.076;7.950;2023-04-24T07:23:07;5.68;;;3.75;;
55031;SDS011;40928;51.076;7.950;2023-04-24T07:25:33;6.80;;;3.92;;
55031;SDS011;40928;51.076;7.950;2023-04-24T07:27:59;8.20;;;3.90;;
55031;SDS011;40928;51.076;7.950;2023-04-24T07:30:24;6.25;;;3.75;;
55031;SDS011;40928;51.076;7.950;2023-04-24T07:32:50;5.47;;;3.70;;
55031;SDS011;40928;51.076;7.950;2023-04-24T07:35:15;6.47;;;4.32;;
55031;SDS011;40928;51.076;7.950;2023-04-24T07:37:41;6.20;;;3.80;;
55031;SDS011;40928;51.076;7.950;2023-04-24T07:40:11;5.18;;;4.07;;
55031;SDS011;40928;51.076;7.950;2023-04-24T07:42:37;9.15;;;5.13;;
55031;SDS011;40928;51.076;7.950;2023-04-24T07:45:03;6.20;;;4.35;;
55031;SDS011;40928;51.076;7.950;2023-04-24T07:47:29;8.30;;;3.88;;
55031;SDS011;40928;51.076;7.950;2023-04-24T07:49:55;6.35;;;4.13;;
55031;SDS011;40928;51.076;7.950;2023-04-24T07:52:21;9.90;;;4.65;;
55031;SDS011;40928;51.076;7.950;2023-04-24T07:54:46;6.13;;;3.92;;
55031;SDS011;40928;51.076;7.950;2023-04-24T07:57:12;7.32;;;3.90;;
55031;SDS011;40928;51.076;7.950;2023-04-24T07:59:38;7.03;;;2.97;;
55031;SDS011;40928;51.076;7.950;2023-04-24T08:02:04;4.90;;;3.10;;
55031;SDS011;40928;51.076;7.950;2023-04-24T08:04:31;4.53;;;3.08;;
55031;SDS011;40928;51.076;7.950;2023-04-24T08:06:57;4.82;;;3.13;;
55031;SDS011;40928;51.076;7.950;2023-04-24T08:09:22;4.45;;;2.80;;
55031;SDS011;40928;51.076;7.950;2023-04-24T08:11:48;4.50;;;2.80;;
55031;SDS011;40928;51.076;7.950;2023-04-24T08:14:14;4.82;;;3.10;;
55031;SDS011;40928;51.076;7.950;2023-04-24T08:16:40;11.02;;;2.90;;
55031;SDS011;40928;51.076;7.950;2023-04-24T08:19:05;3.58;;;2.40;;
55031;SDS011;40928;51.076;7.950;2023-04-24T08:21:31;3.95;;;1.75;;
55031;SDS011;40928;51.076;7.950;2023-04-24T08:23:57;2.83;;;1.75;;
55031;SDS011;40928;51.076;7.950;2023-04-24T08:26:22;2.53;;;1.80;;
55031;SDS011;40928;51.076;7.950;2023-04-24T08:28:48;3.13;;;1.65;;
55031;SDS011;40928;51.076;7.950;2023-04-24T08:31:14;2.38;;;1.35;;
55031;SDS011;40928;51.076;7.950;2023-04-24T08:33:40;3.17;;;1.58;;
55031;SDS011;40928;51.076;7.950;2023-04-24T08:36:06;2.05;;;1.10;;
55031;SDS011;40928;51.076;7.950;2023-04-24T08:38:32;2.67;;;1.50;;
55031;SDS011;40928;51.076;7.950;2023-04-24T08:40:59;2.85;;;1.70;;
55031;SDS011;40928;51.076;7.950;2023-04-24T08:43:26;2.35;;;1.52;;
55031;SDS011;40928;51.076;7.950;2023-04-24T08:45:52;2.85;;;1.60;;
55031;SDS011;40928;51.076;7.950;2023-04-24T08:48:21;2.50;;;1.73;;
55031;SDS011;40928;51.076;7.950;2023-04-24T08:50:48;3.33;;;1.70;;
55031;SDS011;40928;51.076;7.950;2023-04-24T08:53:15;2.53;;;1.05;;
55031;SDS011;40928;51.076;7.950;2023-04-24T08:55:41;3.92;;;0.63;;
55031;SDS011;40928;51.076;7.950;2023-04-24T08:58:08;0.82;;;0.55;;
55031;SDS011;40928;51.076;7.950;2023-04-24T09:00:34;1.90;;;0.70;;
55031;SDS011;40928;51.076;7.950;2023-04-24T09:03:00;0.70;;;0.30;;
55031;SDS011;40928;51.076;7.950;2023-04-24T09:05:28;0.55;;;0.10;;
55031;SDS011;40928;51.076;7.950;2023-04-24T09:07:55;1.05;;;0.22;;
55031;SDS011;40928;51.076;7.950;2023-04-24T09:10:25;0.70;;;0.30;;
55031;SDS011;40928;51.076;7.950;2023-04-24T09:12:51;0.77;;;0.40;;
55031;SDS011;40928;51.076;7.950;2023-04-24T09:15:18;0.70;;;0.28;;
55031;SDS011;40928;51.076;7.950;2023-04-24T09:17:45;0.20;;;0.20;;
55031;SDS011;40928;51.076;7.950;2023-04-24T09:20:11;0.20;;;0.13;;
55031;SDS011;40928;51.076;7.950;2023-04-24T09:22:37;0.52;;;0.10;;
55031;SDS011;40928;51.076;7.950;2023-04-24T09:25:06;0.70;;;0.20;;
55031;SDS011;40928;51.076;7.950;2023-04-24T09:27:34;1.15;;;0.32;;
55031;SDS011;40928;51.076;7.950;2023-04-24T09:30:00;0.38;;;0.30;;
55031;SDS011;40928;51.076;7.950;2023-04-24T09:32:26;0.20;;;0.20;;
55031;SDS011;40928;51.076;7.950;2023-04-24T09:37:34;1.88;;;0.30;;
55031;SDS011;40928;51.076;7.950;2023-04-24T09:40:20;1.30;;;0.10;;
55031;SDS011;40928;51.076;7.950;2023-04-24T09:42:55;3.47;;;0.20;;
55031;SDS011;40928;51.076;7.950;2023-04-24T09:45:35;0.30;;;0.10;;
55031;SDS011;40928;51.076;7.950;2023-04-24T09:48:01;0.63;;;0.20;;
55031;SDS011;40928;51.076;7.950;2023-04-24T09:50:29;0.43;;;0.20;;
55031;SDS011;40928;51.076;7.950;2023-04-24T09:53:01;0.30;;;0.20;;
55031;SDS011;40928;51.076;7.950;2023-04-24T09:55:27;0.73;;;0.30;;
55031;SDS011;40928;51.076;7.950;2023-04-24T09:57:57;1.35;;;0.50;;
55031;SDS011;40928;51.076;7.950;2023-04-24T10:00:29;0.70;;;0.30;;
55031;SDS011;40928;51.076;7.950;2023-04-24T10:05:32;0.47;;;0.40;;
55031;SDS011;40928;51.076;7.950;2023-04-24T10:10:28;1.05;;;0.40;;
55031;SDS011;40928;51.076;7.950;2023-04-24T10:12:54;0.88;;;0.57;;
55031;SDS011;40928;51.076;7.950;2023-04-24T10:15:20;2.05;;;0.40;;
55031;SDS011;40928;51.076;7.950;2023-04-24T10:17:49;0.32;;;0.32;;
55031;SDS011;40928;51.076;7.950;2023-04-24T10:20:20;0.60;;;0.50;;
55031;SDS011;40928;51.076;7.950;2023-04-24T10:22:50;0.75;;;0.47;;
55031;SDS011;40928;51.076;7.950;2023-04-24T10:25:21;0.43;;;0.40;;
55031;SDS011;40928;51.076;7.950;2023-04-24T10:27:49;0.32;;;0.30;;
55031;SDS011;40928;51.076;7.950;2023-04-24T10:30:16;0.60;;;0.30;;
55031;SDS011;40928;51.076;7.950;2023-04-24T10:32:43;1.55;;;0.50;;
55031;SDS011;40928;51.076;7.950;2023-04-24T10:35:11;0.30;;;0.30;;
55031;SDS011;40928;51.076;7.950;2023-04-24T10:37:39;1.13;;;0.60;;
55031;SDS011;40928;51.076;7.950;2023-04-24T10:40:07;0.80;;;0.28;;
55031;SDS011;40928;51.076;7.950;2023-04-24T10:42:35;0.70;;;0.30;;
55031;SDS011;40928;51.076;7.950;2023-04-24T10:45:15;1.52;;;0.40;;
55031;SDS011;40928;51.076;7.950;2023-04-24T10:50:18;1.35;;;0.70;;
55031;SDS011;40928;51.076;7.950;2023-04-24T10:52:47;1.33;;;0.60;;
55031;SDS011;40928;51.076;7.950;2023-04-24T10:55:15;1.33;;;0.77;;
55031;SDS011;40928;51.076;7.950;2023-04-24T11:00:56;1.08;;;0.80;;
55031;SDS011;40928;51.076;7.950;2023-04-24T11:03:27;5.80;;;1.00;;
55031;SDS011;40928;51.076;7.950;2023-04-24T11:06:07;1.35;;;0.88;;
55031;SDS011;40928;51.076;7.950;2023-04-24T11:08:51;1.42;;;0.63;;
55031;SDS011;40928;51.076;7.950;2023-04-24T11:11:17;0.70;;;0.45;;
55031;SDS011;40928;51.076;7.950;2023-04-24T11:19:11;1.77;;;0.50;;
55031;SDS011;40928;51.076;7.950;2023-04-24T11:24:27;0.85;;;0.68;;
55031;SDS011;40928;51.076;7.950;2023-04-24T11:27:05;3.80;;;0.80;;
55031;SDS011;40928;51.076;7.950;2023-04-24T11:29:51;1.73;;;0.70;;
55031;SDS011;40928;51.076;7.950;2023-04-24T11:37:34;1.83;;;1.00;;
55031;SDS011;40928;51.076;7.950;2023-04-24T11:40:02;1.73;;;1.30;;
55031;SDS011;40928;51.076;7.950;2023-04-24T11:42:33;1.92;;;1.10;;
55031;SDS011;40928;51.076;7.950;2023-04-24T11:45:00;2.90;;;1.08;;
55031;SDS011;40928;51.076;7.950;2023-04-24T11:47:30;3.33;;;1.33;;
55031;SDS011;40928;51.076;7.950;2023-04-24T11:49:58;2.38;;;1.67;;
55031;SDS011;40928;51.076;7.950;2023-04-24T11:52:23;3.88;;;1.52;;
55031;SDS011;40928;51.076;7.950;2023-04-24T11:54:49;2.75;;;1.83;;
55031;SDS011;40928;51.076;7.950;2023-04-24T11:57:15;5.00;;;2.30;;
55031;SDS011;40928;51.076;7.950;2023-04-24T11:59:42;3.33;;;2.00;;
55031;SDS011;40928;51.076;7.950;2023-04-24T12:02:07;5.15;;;2.80;;
55031;SDS011;40928;51.076;7.950;2023-04-24T12:04:39;4.93;;;2.75;;
55031;SDS011;40928;51.076;7.950;2023-04-24T12:07:06;3.65;;;2.55;;
55031;SDS011;40928;51.076;7.950;2023-04-24T12:09:46;5.80;;;2.47;;
55031;SDS011;40928;51.076;7.950;2023-04-24T12:12:16;4.68;;;2.20;;
55031;SDS011;40928;51.076;7.950;2023-04-24T12:14:49;5.85;;;2.05;;
55031;SDS011;40928;51.076;7.950;2023-04-24T12:17:16;5.80;;;1.88;;
55031;SDS011;40928;51.076;7.950;2023-04-24T12:19:51;3.75;;;2.03;;
55031;SDS011;40928;51.076;7.950;2023-04-24T12:22:16;3.72;;;1.42;;
55031;SDS011;40928;51.076;7.950;2023-04-24T12:24:58;3.03;;;1.55;;
55031;SDS011;40928;51.076;7.950;2023-04-24T12:27:25;1.50;;;1.02;;
55031;SDS011;40928;51.076;7.950;2023-04-24T12:29:55;3.80;;;1.30;;
55031;SDS011;40928;51.076;7.950;2023-04-24T12:32:22;4.82;;;1.38;;
55031;SDS011;40928;51.076;7.950;2023-04-24T12:34:49;1.90;;;1.20;;
55031;SDS011;40928;51.076;7.950;2023-04-24T12:37:16;4.45;;;1.73;;
55031;SDS011;40928;51.076;7.950;2023-04-24T12:39:57;3.03;;;1.45;;
55031;SDS011;40928;51.076;7.950;2023-04-24T12:42:28;6.82;;;2.47;;
55031;SDS011;40928;51.076;7.950;2023-04-24T12:44:58;5.18;;;2.20;;
55031;SDS011;40928;51.076;7.950;2023-04-24T12:47:25;8.82;;;2.47;;
55031;SDS011;40928;51.076;7.950;2023-04-24T12:49:51;7.38;;;3.53;;
55031;SDS011;40928;51.076;7.950;2023-04-24T12:52:20;11.75;;;2.70;;
55031;SDS011;40928;51.076;7.950;2023-04-24T12:54:47;6.22;;;2.50;;
55031;SDS011;40928;51.076;7.950;2023-04-24T12:57:12;7.53;;;2.50;;
55031;SDS011;40928;51.076;7.950;2023-04-24T12:59:38;12.23;;;2.72;;
55031;SDS011;40928;51.076;7.950;2023-04-24T13:02:04;6.30;;;2.78;;
55031;SDS011;40928;51.076;7.950;2023-04-24T13:04:30;6.15;;;2.25;;
55031;SDS011;40928;51.076;7.950;2023-04-24T13:06:56;7.15;;;2.72;;
55031;SDS011;40928;51.076;7.950;2023-04-24T13:09:21;6.57;;;2.58;;
55031;SDS011;40928;51.076;7.950;2023-04-24T13:11:48;5.78;;;2.85;;
55031;SDS011;40928;51.076;7.950;2023-04-24T13:14:14;9.43;;;2.50;;
55031;SDS011;40928;51.076;7.950;2023-04-24T13:16:40;5.97;;;2.58;;
55031;SDS011;40928;51.076;7.950;2023-04-24T13:19:05;5.72;;;2.80;;
55031;SDS011;40928;51.076;7.950;2023-04-24T13:21:31;16.05;;;3.45;;
55031;SDS011;40928;51.076;7.950;2023-04-24T13:23:57;12.48;;;3.35;;
55031;SDS011;40928;51.076;7.950;2023-04-24T13:26:22;10.77;;;2.90;;
55031;SDS011;40928;51.076;7.950;2023-04-24T13:28:48;6.78;;;2.85;;
55031;SDS011;40928;51.076;7.950;2023-04-24T13:31:13;10.55;;;3.00;;
55031;SDS011;40928;51.076;7.950;2023-04-24T13:33:39;8.00;;;3.53;;
55031;SDS011;40928;51.076;7.950;2023-04-24T13:36:05;9.45;;;2.47;;
55031;SDS011;40928;51.076;7.950;2023-04-24T13:38:31;7.60;;;3.50;;
55031;SDS011;40928;51.076;7.950;2023-04-24T13:40:56;8.60;;;3.03;;
55031;SDS011;40928;51.076;7.950;2023-04-24T13:43:22;6.85;;;2.90;;
55031;SDS011;40928;51.076;7.950;2023-04-24T13:45:48;7.53;;;3.13;;
55031;SDS011;40928;51.076;7.950;2023-04-24T13:48:13;9.25;;;3.15;;
55031;SDS011;40928;51.076;7.950;2023-04-24T13:50:41;8.48;;;3.35;;
55031;SDS011;40928;51.076;7.950;2023-04-24T13:53:07;9.13;;;3.65;;
55031;SDS011;40928;51.076;7.950;2023-04-24T13:55:32;7.78;;;3.05;;
55031;SDS011;40928;51.076;7.950;2023-04-24T13:57:58;8.05;;;3.55;;
55031;SDS011;40928;51.076;7.950;2023-04-24T14:00:23;10.10;;;3.50;;
55031;SDS011;40928;51.076;7.950;2023-04-24T14:02:49;12.00;;;3.90;;
55031;SDS011;40928;51.076;7.950;2023-04-24T14:05:15;15.25;;;3.35;;
55031;SDS011;40928;51.076;7.950;2023-04-24T14:07:41;9.15;;;3.08;;
55031;SDS011;40928;51.076;7.950;2023-04-24T14:10:07;9.13;;;3.25;;
55031;SDS011;40928;51.076;7.950;2023-04-24T14:12:33;9.93;;;3.40;;
55031;SDS011;40928;51.076;7.950;2023-04-24T14:14:58;9.55;;;2.85;;
55031;SDS011;40928;51.076;7.950;2023-04-24T14:17:24;7.28;;;3.28;;
55031;SDS011;40928;51.076;7.950;2023-04-24T14:19:49;5.50;;;2.72;;
55031;SDS011;40928;51.076;7.950;2023-04-24T14:22:17;8.77;;;3.50;;
55031;SDS011;40928;51.076;7.950;2023-04-24T14:24:42;11.88;;;3.17;;
55031;SDS011;40928;51.076;7.950;2023-04-24T14:27:08;11.30;;;3.53;;
55031;SDS011;40928;51.076;7.950;2023-04-24T14:29:34;8.23;;;2.80;;
55031;SDS011;40928;51.076;7.950;2023-04-24T14:31:59;12.93;;;3.28;;
55031;SDS011;40928;51.076;7.950;2023-04-24T14:34:25;8.27;;;2.90;;
55031;SDS011;40928;51.076;7.950;2023-04-24T14:36:52;7.50;;;2.90;;
55031;SDS011;40928;51.076;7.950;2023-04-24T14:39:17;10.15;;;3.58;;
55031;SDS011;40928;51.076;7.950;2023-04-24T14:41:43;9.82;;;2.58;;
55031;SDS011;40928;51.076;7.950;2023-04-24T14:44:08;12.50;;;2.95;;
55031;SDS011;40928;51.076;7.950;2023-04-24T14:46:34;9.13;;;2.40;;
55031;SDS011;40928;51.076;7.950;2023-04-24T14:49:00;9.18;;;2.95;;
55031;SDS011;40928;51.076;7.950;2023-04-24T14:51:25;7.25;;;2.78;;
55031;SDS011;40928;51.076;7.950;2023-04-24T14:53:52;6.35;;;2.78;;
55031;SDS011;40928;51.076;7.950;2023-04-24T14:56:17;6.88;;;2.47;;
55031;SDS011;40928;51.076;7.950;2023-04-24T14:58:43;8.30;;;2.05;;
55031;SDS011;40928;51.076;7.950;2023-04-24T15:01:08;9.73;;;3.20;;
55031;SDS011;40928;51.076;7.950;2023-04-24T15:03:34;4.65;;;2.10;;
55031;SDS011;40928;51.076;7.950;2023-04-24T15:05:59;7.90;;;2.30;;
55031;SDS011;40928;51.076;7.950;2023-04-24T15:08:26;7.97;;;2.80;;
55031;SDS011;40928;51.076;7.950;2023-04-24T15:10:51;17.45;;;2.55;;
55031;SDS011;40928;51.076;7.950;2023-04-24T15:13:17;7.20;;;2.63;;
55031;SDS011;40928;51.076;7.950;2023-04-24T15:15:43;6.05;;;2.08;;
55031;SDS011;40928;51.076;7.950;2023-04-24T15:18:11;6.75;;;2.22;;